Time;durP1;ratioP1;P1;durP2;ratioP2;P2;SDS_P1;SDS_P2;PMS_P1;PMS_P2;Temp;Humidity;BMP_temperature;BMP_pressure;BME280_temperature;BME280_humidity;BME280_pressure;Samples;Min_cycle;Max_cycle;Signal;HPM_P1;HPM_P2
2024/04/16 00:01:09;;;;;;;14.70;3.60;;;;;;;11.39;79.03;95681.20;104799;1260;99859;-83
2024/04/16 00:03:55;;;;;;;8.60;2.60;;;;;;;11.41;79.20;95648.20;104690;1262;104905;-83
2024/04/16 00:07:02;;;;;;;9.60;2.90;;;;;;;11.42;78.98;95657.23;104779;1257;100316;-82
2024/04/16 00:09:32;;;;;;;11.00;2.70;;;;;;;11.43;78.89;95669.83;104756;1259;99279;-83
2024/04/16 00:12:39;;;;;;;12.00;2.90;;;;;;;11.45;78.77;95667.14;104684;1259;99273;-82
2024/04/16 00:15:36;;;;;;;11.10;2.80;;;;;;;11.46;78.74;95673.31;104718;1259;100855;-83
2024/04/16 00:18:43;;;;;;;13.80;2.60;;;;;;;11.45;78.65;95672.61;104786;1262;103784;-82
2024/04/16 00:21:50;;;;;;;12.70;3.20;;;;;;;11.48;78.59;95675.84;104748;1259;101509;-85
2024/04/16 00:24:57;;;;;;;9.10;2.80;;;;;;;11.48;78.46;95678.23;104775;1261;100006;-81
2024/04/16 00:27:46;;;;;;;9.80;2.60;;;;;;;11.49;78.12;95674.40;104663;1267;99337;-84
2024/04/16 00:30:19;;;;;;;10.60;2.40;;;;;;;11.50;78.01;95662.73;104652;1262;100935;-84
2024/04/16 00:32:56;;;;;;;13.50;2.60;;;;;;;11.51;77.81;95660.38;104755;1259;104876;-82
2024/04/16 00:36:02;;;;;;;9.90;2.50;;;;;;;11.53;77.78;95665.36;104836;1259;100444;-84
2024/04/16 00:38:52;;;;;;;11.70;3.00;;;;;;;11.53;77.59;95666.71;104671;1276;100655;-83
2024/04/16 00:41:59;;;;;;;7.10;2.30;;;;;;;11.54;77.28;95670.83;104822;1260;99349;-82
2024/04/16 00:44:49;;;;;;;9.50;2.60;;;;;;;11.57;77.46;95674.85;104942;1262;99695;-83
2024/04/16 00:47:56;;;;;;;13.30;2.60;;;;;;;11.58;77.48;95671.02;104743;1259;103947;-84
2024/04/16 00:50:43;;;;;;;8.90;2.70;;;;;;;11.59;77.50;95660.00;104814;1259;100430;-81
2024/04/16 00:53:48;;;;;;;11.40;2.60;;;;;;;11.60;77.13;95651.28;104720;1259;99388;-82
2024/04/16 00:56:45;;;;;;;10.40;2.60;;;;;;;11.61;77.06;95646.49;104794;1257;99333;-81
2024/04/16 00:59:52;;;;;;;12.50;2.10;;;;;;;11.63;77.13;95645.86;104783;1257;99775;-84
2024/04/16 01:02:59;;;;;;;13.00;2.50;;;;;;;11.64;77.08;95637.70;104746;1259;103499;-79
2024/04/16 01:05:56;;;;;;;10.50;2.60;;;;;;;11.65;77.10;95638.41;104812;1257;100377;-84
2024/04/16 01:09:03;;;;;;;15.10;2.60;;;;;;;11.66;76.96;95630.75;104693;1263;99264;-83
2024/04/16 01:12:06;;;;;;;12.70;2.50;;;;;;;11.67;76.94;95635.89;104719;1263;99361;-82
2024/04/16 01:14:56;;;;;;;8.10;2.90;;;;;;;11.67;76.78;95634.33;104659;1257;99285;-84
2024/04/16 01:17:43;;;;;;;8.40;1.90;;;;;;;11.66;76.64;95623.51;104916;1259;104430;-84
2024/04/16 01:20:50;;;;;;;11.10;2.80;;;;;;;11.67;76.74;95618.27;104669;1259;101188;-82
2024/04/16 01:23:57;;;;;;;10.50;2.80;;;;;;;11.68;76.47;95618.61;104708;1279;99348;-83
2024/04/16 01:27:03;;;;;;;10.30;2.20;;;;;;;11.67;76.43;95620.38;104733;1263;99550;-84
2024/04/16 01:29:53;;;;;;;9.80;2.50;;;;;;;11.65;76.36;95614.27;102444;1257;3128995;-84
2024/04/16 01:32:46;;;;;;;11.30;2.90;;;;;;;11.63;76.33;95607.48;104757;1259;101320;-88
2024/04/16 01:35:18;;;;;;;;;;;;;;;11.62;76.25;95605.80;104871;1260;99358;-87
2024/04/16 01:37:50;;;;;;;10.60;2.10;;;;;;;11.61;76.23;95615.79;104805;1259;99348;-83
2024/04/16 01:40:36;;;;;;;;;;;;;;;11.61;76.18;95616.77;104839;1261;99626;-84
2024/04/16 01:43:11;;;;;;;15.80;2.20;;;;;;;11.59;76.16;95613.36;104815;1260;104878;-81
2024/04/16 01:46:10;;;;;;;5.90;2.40;;;;;;;11.58;75.94;95620.33;104789;1259;101449;-84
2024/04/16 01:48:41;;;;;;;7.80;2.00;;;;;;;11.59;75.70;95632.06;104697;1263;99289;-83
2024/04/16 01:51:29;;;;;;;7.80;2.00;;;;;;;11.60;75.62;95642.31;104638;1263;99267;-83
2024/04/16 01:54:36;;;;;;;10.20;2.20;;;;;;;11.60;75.63;95643.08;104590;1260;100504;-81
2024/04/16 01:57:25;;;;;;;6.50;1.90;;;;;;;11.60;75.46;95635.63;104770;1273;104776;-82
2024/04/16 02:00:23;;;;;;;11.50;2.20;;;;;;;11.60;75.59;95621.79;104802;1260;101155;-81
2024/04/16 02:03:30;;;;;;;9.90;2.10;;;;;;;11.61;75.56;95623.84;104677;1264;99346;-85
2024/04/16 02:06:23;;;;;;;8.80;1.70;;;;;;;11.59;75.90;95630.27;104617;1268;99260;-84
2024/04/16 02:09:29;;;;;;;6.80;1.90;;;;;;;11.56;76.11;95625.28;104625;1261;99718;-84
2024/04/16 02:12:06;;;;;;;7.80;2.00;;;;;;;11.49;76.18;95607.67;104796;1259;104141;-83
2024/04/16 02:14:52;;;;;;;10.40;1.90;;;;;;;11.45;75.99;95588.58;104832;1261;100515;-84
2024/04/16 02:17:32;;;;;;;7.50;1.60;;;;;;;11.44;76.04;95596.46;104783;1267;99337;-83
2024/04/16 02:20:39;;;;;;;8.60;1.80;;;;;;;11.44;76.24;95607.31;104858;1259;99352;-84
2024/04/16 02:23:18;;;;;;;7.70;2.50;;;;;;;11.42;76.32;95601.41;104691;1264;100942;-80
2024/04/16 02:26:19;;;;;;;8.90;1.90;;;;;;;11.41;76.39;95601.40;104764;1259;104028;-80
2024/04/16 02:29:25;;;;;;;6.10;1.40;;;;;;;11.41;76.57;95604.10;104735;1260;100630;-83
2024/04/16 02:32:15;;;;;;;7.70;1.80;;;;;;;11.40;76.65;95602.52;104711;1270;106394;-80
2024/04/16 02:35:01;;;;;;;5.50;1.80;;;;;;;11.40;76.67;95601.07;104834;1260;99272;-82
2024/04/16 02:38:08;;;;;;;5.70;1.70;;;;;;;11.39;76.57;95603.07;104679;1270;99205;-81
2024/04/16 02:40:57;;;;;;;10.10;2.00;;;;;;;11.38;76.66;95606.02;104771;1277;104100;-80
2024/04/16 02:43:44;;;;;;;4.60;1.60;;;;;;;11.35;76.61;95611.46;104780;1259;101044;-82
2024/04/16 02:46:17;;;;;;;4.90;1.40;;;;;;;11.33;76.53;95622.05;104853;1260;99276;-85
2024/04/16 02:49:24;;;;;;;5.70;1.40;;;;;;;11.29;76.46;95617.52;104669;1273;99343;-82
2024/04/16 02:52:01;;;;;;;3.90;1.20;;;;;;;11.24;76.02;95627.00;104725;1262;100457;-82
2024/04/16 02:54:30;;;;;;;8.50;1.60;;;;;;;11.25;75.94;95630.35;104796;1273;106104;-82
2024/04/16 02:57:09;;;;;;;4.30;1.50;;;;;;;11.28;75.98;95632.48;104762;1262;102917;-83
2024/04/16 02:59:38;;;;;;;3.80;1.30;;;;;;;11.31;75.88;95629.98;104723;1276;100686;-83
2024/04/16 03:02:20;;;;;;;5.20;1.40;;;;;;;11.32;75.66;95632.95;104816;1259;99274;-82
2024/04/16 03:05:09;;;;;;;4.40;1.10;;;;;;;11.32;75.78;95656.40;104679;1256;99347;-79
2024/04/16 03:07:36;;;;;;;1.90;0.80;;;;;;;11.05;75.09;95671.23;104716;1260;103873;-81
2024/04/16 03:10:43;;;;;;;3.60;0.50;;;;;;;10.75;75.08;95671.52;104837;1259;99264;-82
2024/04/16 03:13:29;;;;;;;1.80;0.50;;;;;;;10.48;74.96;95688.02;104600;1262;100054;-82
2024/04/16 03:16:25;;;;;;;1.00;0.50;;;;;;;10.31;75.23;95692.23;104752;1260;99279;-82
2024/04/16 03:19:14;;;;;;;2.10;1.00;;;;;;;9.97;75.76;95698.83;104679;1259;99781;-81
2024/04/16 03:22:21;;;;;;;2.60;1.00;;;;;;;9.56;76.51;95699.42;104703;1265;104936;-79
2024/04/16 03:25:28;;;;;;;3.80;0.70;;;;;;;9.33;77.40;95734.80;104649;1259;100610;-80
2024/04/16 03:27:58;;;;;;;3.10;1.50;;;;;;;9.30;78.29;95729.42;104723;1270;100500;-83
2024/04/16 03:30:47;;;;;;;4.30;1.90;;;;;;;9.26;78.57;95730.02;104728;1257;99349;-80
2024/04/16 03:33:54;;;;;;;5.10;2.40;;;;;;;9.27;78.69;95730.58;104585;1257;99781;-81
2024/04/16 03:36:51;;;;;;;5.30;3.40;;;;;;;9.23;79.16;95722.46;104641;1260;104678;-84
2024/04/16 03:39:58;;;;;;;4.90;3.10;;;;;;;9.21;79.28;95727.93;104713;1259;101344;-80
2024/04/16 03:42:35;;;;;;;3.10;1.80;;;;;;;9.25;79.46;95734.80;104735;1259;99355;-80
2024/04/16 03:45:04;;;;;;;3.10;1.00;;;;;;;9.27;79.56;95735.59;104760;1262;99598;-81
2024/04/16 03:47:54;;;;;;;2.40;0.60;;;;;;;9.29;79.56;95742.23;104798;1256;99765;-83
2024/04/16 03:50:50;;;;;;;2.40;0.90;;;;;;;9.32;79.70;95739.52;104748;1270;103968;-82
2024/04/16 03:53:17;;;;;;;1.10;0.60;;;;;;;9.29;79.45;95741.10;104691;1256;100628;-81
2024/04/16 03:56:17;;;;;;;2.50;0.80;;;;;;;9.26;79.22;95733.36;104762;1267;100590;-84
2024/04/16 03:59:26;;;;;;;2.50;0.60;;;;;;;9.22;78.92;95733.00;104731;1260;99281;-82
2024/04/16 04:02:33;;;;;;;2.60;0.80;;;;;;;9.15;78.98;95752.89;104706;1257;99242;-82
2024/04/16 04:05:40;;;;;;;2.90;1.00;;;;;;;9.16;79.11;95756.82;104696;1264;104835;-84
2024/04/16 04:08:47;;;;;;;1.20;0.90;;;;;;;9.12;79.30;95747.70;104804;1260;100504;-84
2024/04/16 04:11:54;;;;;;;4.50;1.00;;;;;;;9.10;79.67;95734.85;104691;1260;99814;-83
2024/04/16 04:15:01;;;;;;;3.40;0.70;;;;;;;9.07;79.86;95714.11;104691;1259;99289;-81
2024/04/16 04:17:58;;;;;;;3.10;0.90;;;;;;;9.03;80.15;95714.20;104741;1257;99232;-82
2024/04/16 04:20:46;;;;;;;2.20;0.90;;;;;;;9.05;80.23;95705.80;104875;1259;103938;-84
2024/04/16 04:23:53;;;;;;;2.30;1.40;;;;;;;9.05;80.28;95694.08;104739;1271;100458;-83
2024/04/16 04:26:41;;;;;;;3.50;0.90;;;;;;;9.03;80.30;95686.83;104700;1259;99786;-82
2024/04/16 04:29:48;;;;;;;2.70;1.10;;;;;;;9.04;80.56;95686.90;104764;1259;100739;-81
2024/04/16 04:32:31;;;;;;;3.10;1.30;;;;;;;9.06;80.67;95693.00;104765;1259;100899;-86
2024/04/16 04:35:18;;;;;;;2.70;1.40;;;;;;;9.07;80.86;95698.02;104725;1259;105035;-82
2024/04/16 04:38:25;;;;;;;1.40;1.10;;;;;;;9.06;80.86;95694.35;104700;1263;100413;-83
2024/04/16 04:41:14;;;;;;;5.10;1.50;;;;;;;9.03;80.83;95685.33;104640;1263;99339;-83
2024/04/16 04:43:44;;;;;;;2.40;1.50;;;;;;;9.04;80.83;95670.96;104710;1272;99343;-83
2024/04/16 04:46:31;;;;;;;2.50;1.90;;;;;;;9.03;80.90;95661.73;104696;1260;99872;-84
2024/04/16 04:49:38;;;;;;;3.70;1.90;;;;;;;9.02;81.00;95658.52;104715;1279;104912;-83
2024/04/16 04:52:45;;;;;;;6.40;3.50;;;;;;;9.04;81.09;95664.83;104459;1276;109516;-83
2024/04/16 04:55:11;;;;;;;7.30;5.10;;;;;;;9.04;81.26;95668.39;104595;1262;100613;-84
2024/04/16 04:57:41;;;;;;;16.60;14.70;;;;;;;9.07;81.28;95669.21;104674;1262;99287;-81
2024/04/16 05:00:42;;;;;;;17.30;15.30;;;;;;;9.10;81.30;95671.64;104861;1262;99792;-81
2024/04/16 05:03:09;;;;;;;6.30;5.00;;;;;;;9.10;81.31;95674.44;104713;1269;104322;-84
2024/04/16 05:05:36;;;;;;;2.30;1.90;;;;;;;9.10;81.15;95675.31;104925;1272;99340;-84
2024/04/16 05:08:06;;;;;;;2.10;1.20;;;;;;;9.10;80.83;95681.66;104809;1263;99773;-83
2024/04/16 05:10:51;;;;;;;2.70;1.20;;;;;;;9.07;80.57;95696.41;104667;1260;99293;-82
2024/04/16 05:13:50;;;;;;;3.80;1.00;;;;;;;9.06;80.50;95706.63;104747;1259;99776;-83
2024/04/16 05:16:36;;;;;;;2.20;1.40;;;;;;;9.06;80.43;95710.34;104667;1261;104359;-84
2024/04/16 05:19:25;;;;;;;4.30;2.20;;;;;;;9.05;80.48;95699.41;104714;1260;100092;-83
2024/04/16 05:21:52;;;;;;;5.40;2.00;;;;;;;9.03;80.17;95694.70;104553;1263;99239;-83
2024/04/16 05:24:46;;;;;;;3.50;1.80;;;;;;;9.02;80.00;95693.02;104593;1263;99361;-82
2024/04/16 05:27:53;;;;;;;2.90;1.20;;;;;;;9.01;79.85;95691.00;104692;1263;99680;-82
2024/04/16 05:31:00;;;;;;;3.10;1.50;;;;;;;8.99;79.68;95694.73;105128;1259;104035;-83
2024/04/16 05:33:47;;;;;;;1.50;0.80;;;;;;;8.97;79.55;95701.69;104668;1279;100591;-82
2024/04/16 05:36:30;;;;;;;2.90;1.10;;;;;;;8.99;79.42;95695.73;104825;1262;99257;-84
2024/04/16 05:39:16;;;;;;;1.60;1.50;;;;;;;9.02;79.23;95696.13;104635;1259;100514;-84
2024/04/16 05:42:13;;;;;;;3.60;1.70;;;;;;;9.04;78.90;95684.42;104707;1260;99701;-82
2024/04/16 05:45:05;;;;;;;1.30;1.10;;;;;;;9.05;78.70;95691.39;104865;1269;105232;-82
2024/04/16 05:47:41;;;;;;;2.00;1.30;;;;;;;9.07;78.21;95703.55;105743;1261;108895;-84
2024/04/16 05:50:07;;;;;;;1.90;1.20;;;;;;;9.07;78.13;95716.05;104615;1263;99884;-82
2024/04/16 05:53:14;;;;;;;2.00;0.90;;;;;;;9.08;77.75;95719.83;104792;1266;99272;-80
2024/04/16 05:55:52;;;;;;;4.80;1.90;;;;;;;9.06;77.28;95729.08;104791;1272;99702;-85
2024/04/16 05:58:34;;;;;;;3.40;1.40;;;;;;;9.04;76.91;95725.93;104837;1270;104932;-87
2024/04/16 06:01:24;;;;;;;2.70;1.10;;;;;;;9.03;76.83;95726.13;104752;1270;101377;-84
2024/04/16 06:04:24;;;;;;;1.70;1.00;;;;;;;9.03;77.06;95732.54;105020;1260;99842;-84
2024/04/16 06:07:21;;;;;;;3.80;1.20;;;;;;;9.05;77.29;95739.02;104801;1260;99339;-81
2024/04/16 06:09:48;;;;;;;2.80;1.60;;;;;;;9.04;77.20;95742.08;104862;1270;99768;-81
2024/04/16 06:12:54;;;;;;;4.60;1.50;;;;;;;9.04;77.26;95743.79;104742;1259;99603;-85
2024/04/16 06:16:01;;;;;;;21.60;6.70;;;;;;;9.05;77.47;95756.56;104790;1257;100422;-82
2024/04/16 06:19:01;;;;;;;5.40;2.00;;;;;;;9.06;77.50;95769.34;104600;1262;101254;-82
2024/04/16 06:21:33;;;;;;;2.00;1.00;;;;;;;9.06;77.64;95771.92;104773;1260;99805;-82
2024/04/16 06:24:20;;;;;;;1.50;0.90;;;;;;;9.01;77.41;95765.00;104640;1259;99271;-82
2024/04/16 06:26:47;;;;;;;2.60;0.90;;;;;;;8.94;77.16;95767.30;104750;1267;104993;-82
2024/04/16 06:29:16;;;;;;;2.70;1.20;;;;;;;8.92;77.15;95768.65;104743;1269;99282;-81
2024/04/16 06:32:11;;;;;;;1.60;1.20;;;;;;;8.86;77.07;95764.88;104937;1270;100622;-85
2024/04/16 06:35:18;;;;;;;2.60;1.10;;;;;;;8.79;77.29;95771.73;104685;1259;99386;-82
2024/04/16 06:38:25;;;;;;;3.10;1.60;;;;;;;8.77;77.58;95788.42;104695;1267;99676;-83
2024/04/16 06:40:52;;;;;;;2.70;2.20;;;;;;;8.77;77.81;95800.05;104798;1273;103655;-81
2024/04/16 06:43:44;;;;;;;3.00;1.30;;;;;;;8.75;77.52;95802.04;104685;1262;99336;-81
2024/04/16 06:46:35;;;;;;;8.60;2.90;;;;;;;8.67;77.22;95795.91;104676;1279;99603;-83
2024/04/16 06:49:42;;;;;;;4.00;2.20;;;;;;;8.59;77.06;95792.64;104687;1263;99358;-84
2024/04/16 06:52:49;;;;;;;5.40;2.70;;;;;;;8.52;77.23;95796.00;104642;1263;99750;-83
2024/04/16 06:55:35;;;;;;;6.30;2.60;;;;;;;8.49;77.31;95801.67;104778;1264;105833;-87
2024/04/16 06:58:35;;;;;;;7.00;4.30;;;;;;;8.49;77.32;95810.17;104993;1271;99588;-82
2024/04/16 07:01:42;;;;;;;6.40;3.60;;;;;;;8.45;77.35;95813.27;104667;1270;99999;-84
2024/04/16 07:04:31;;;;;;;6.50;3.80;;;;;;;8.45;77.58;95820.20;104711;1267;100729;-83
2024/04/16 07:07:08;;;;;;;9.30;5.20;;;;;;;8.47;77.70;95816.37;104638;1264;99696;-84
2024/04/16 07:10:15;;;;;;;5.30;4.30;;;;;;;8.48;77.44;95816.60;104661;1270;104954;-84
2024/04/16 07:13:22;;;;;;;5.50;3.50;;;;;;;8.46;77.51;95810.92;104387;1276;100603;-81
2024/04/16 07:15:50;;;;;;;3.70;2.40;;;;;;;8.49;77.56;95801.67;104826;1260;99372;-81
2024/04/16 07:18:20;;;;;;;2.20;1.90;;;;;;;8.49;77.24;95797.92;104791;1263;99249;-82
2024/04/16 07:20:48;;;;;;;5.40;1.30;;;;;;;8.47;77.30;95789.80;104687;1273;100585;-81
2024/04/16 07:23:20;;;;;;;1.90;1.40;;;;;;;8.46;77.20;95781.50;104860;1261;103998;-80
2024/04/16 07:25:54;;;;;;;;;;;;;;;8.47;77.07;95778.67;104685;1271;101502;-83
2024/04/16 07:28:31;;;;;;;1.90;1.20;;;;;;;8.44;76.91;95762.80;104923;1269;99276;-83
2024/04/16 07:30:57;;;;;;;2.40;1.40;;;;;;;8.43;76.92;95752.14;104689;1263;99622;-83
2024/04/16 07:33:41;;;;;;;1.50;1.20;;;;;;;8.44;76.85;95753.24;104712;1263;99341;-83
2024/04/16 07:36:32;;;;;;;2.40;1.30;;;;;;;8.47;76.74;95748.77;104699;1260;103427;-82
2024/04/16 07:39:39;;;;;;;1.50;1.00;;;;;;;8.48;76.44;95762.23;104699;1260;100462;-86
2024/04/16 07:42:36;;;;;;;2.50;1.10;;;;;;;8.48;76.25;95775.02;104646;1270;99968;-83
2024/04/16 07:45:35;;;;;;;3.20;1.50;;;;;;;8.53;76.46;95764.66;104737;1265;99292;-84
2024/04/16 07:48:42;;;;;;;1.80;1.50;;;;;;;8.63;76.59;95778.36;104813;1273;100948;-84
2024/04/16 07:51:20;;;;;;;7.40;1.60;;;;;;;8.73;76.69;95828.93;104631;1263;103648;-83
2024/04/16 07:53:55;;;;;;;7.70;4.20;;;;;;;8.77;76.75;95849.67;104789;1257;100022;-83
2024/04/16 07:56:39;;;;;;;5.10;3.40;;;;;;;8.77;76.48;95846.33;104833;1260;99962;-82
2024/04/16 07:59:46;;;;;;;5.00;1.80;;;;;;;8.79;75.89;95834.53;104637;1270;99333;-83
2024/04/16 08:02:53;;;;;;;13.00;4.60;;;;;;;8.65;75.30;95842.00;104783;1270;99772;-85
2024/04/16 08:05:23;;;;;;;15.80;5.70;;;;;;;8.51;75.50;95843.89;104650;1257;103651;-83
2024/04/16 08:08:30;;;;;;;7.10;2.60;;;;;;;8.56;75.80;95860.23;104781;1270;100220;-81
2024/04/16 08:11:37;;;;;;;4.10;1.90;;;;;;;8.66;75.38;95864.13;104884;1270;100796;-83
2024/04/16 08:14:17;;;;;;;6.00;1.50;;;;;;;8.67;74.83;95863.17;104980;1261;99278;-80
2024/04/16 08:17:00;;;;;;;3.60;1.60;;;;;;;8.69;74.73;95877.03;104795;1279;99740;-82
2024/04/16 08:19:49;;;;;;;3.70;1.60;;;;;;;8.72;74.56;95887.38;104817;1260;104447;-80
2024/04/16 08:22:44;;;;;;;5.40;1.70;;;;;;;8.63;74.10;95881.43;104772;1269;101438;-82
2024/04/16 08:25:14;;;;;;;3.80;1.60;;;;;;;8.58;73.88;95872.98;104704;1263;99935;-80
2024/04/16 08:28:14;;;;;;;4.30;1.70;;;;;;;8.52;74.08;95868.13;104775;1264;99243;-82
2024/04/16 08:30:48;;;;;;;10.20;1.80;;;;;;;8.53;74.33;95861.73;104896;1270;99764;-80
2024/04/16 08:33:20;;;;;;;4.50;1.20;;;;;;;8.56;74.42;95863.21;105192;1260;103882;-80
2024/04/16 08:36:25;;;;;;;5.90;1.30;;;;;;;8.58;74.16;95860.55;105066;1269;100522;-80
2024/04/16 08:39:06;;;;;;;4.90;1.50;;;;;;;8.53;73.74;95860.29;104814;1270;99282;-81
2024/04/16 08:41:39;;;;;;;5.00;1.50;;;;;;;8.53;74.05;95858.95;104641;1261;100598;-83
2024/04/16 08:44:08;;;;;;;4.10;1.60;;;;;;;8.55;73.92;95866.16;104700;1260;99813;-82
2024/04/16 08:46:51;;;;;;;3.70;2.10;;;;;;;8.58;73.65;95882.59;104711;1260;104937;-84
2024/04/16 08:49:24;;;;;;;5.60;2.70;;;;;;;8.55;73.17;95892.11;104677;1269;101277;-82
2024/04/16 08:52:09;;;;;;;6.50;1.90;;;;;;;8.51;73.04;95895.95;104769;1264;99527;-83
2024/04/16 08:55:00;;;;;;;9.70;2.00;;;;;;;8.49;73.04;95907.02;104750;1261;99324;-83
2024/04/16 08:58:00;;;;;;;3.40;1.70;;;;;;;8.46;72.81;95911.80;104870;1264;99760;-84
2024/04/16 09:00:29;;;;;;;4.50;1.40;;;;;;;8.37;72.55;95911.98;104827;1271;104236;-83
2024/04/16 09:03:18;;;;;;;2.70;1.30;;;;;;;8.34;72.58;95909.06;104913;1257;100583;-81
2024/04/16 09:06:06;;;;;;;5.30;1.40;;;;;;;8.28;72.88;95919.48;105014;1259;99571;-80
2024/04/16 09:09:02;;;;;;;4.20;1.70;;;;;;;8.25;73.09;95919.15;104714;1257;99355;-81
2024/04/16 09:11:28;;;;;;;4.20;2.30;;;;;;;8.22;72.86;95930.04;104724;1264;99683;-81
2024/04/16 09:14:38;;;;;;;3.40;1.80;;;;;;;8.11;72.47;95925.95;104771;1264;99787;-82
2024/04/16 09:17:25;;;;;;;7.60;2.00;;;;;;;8.08;72.90;95920.67;104800;1271;100357;-84
2024/04/16 09:20:12;;;;;;;3.60;1.90;;;;;;;8.14;73.22;95923.39;104595;1261;100025;-85
2024/04/16 09:23:19;;;;;;;5.50;3.10;;;;;;;8.18;73.41;95920.27;104458;1270;100589;-81
2024/04/16 09:26:31;;;;;;;5.00;3.00;;;;;;;8.21;73.54;95910.14;104747;1259;99791;-81
2024/04/16 09:29:44;;;;;;;13.10;5.00;;;;;;;8.18;74.26;95908.41;104849;1270;104094;-81
2024/04/16 09:32:41;;;;;;;5.10;2.90;;;;;;;8.19;74.43;95910.13;104676;1261;100518;-84
2024/04/16 09:35:12;;;;;;;6.30;2.80;;;;;;;8.26;74.61;95912.90;104779;1276;99589;-80
2024/04/16 09:37:58;;;;;;;7.40;3.00;;;;;;;8.37;74.49;95908.59;104938;1260;99279;-80
2024/04/16 09:41:01;;;;;;;5.30;2.50;;;;;;;8.52;74.79;95916.85;105027;1261;99744;-81
2024/04/16 09:44:08;;;;;;;4.70;2.30;;;;;;;8.67;74.11;95922.25;104731;1261;104096;-80
2024/04/16 09:46:58;;;;;;;3.80;2.10;;;;;;;8.77;73.41;95908.58;104704;1269;100409;-81
2024/04/16 09:49:45;;;;;;;4.30;2.10;;;;;;;8.77;73.26;95899.39;104728;1270;99269;-85
2024/04/16 09:52:54;;;;;;;6.90;1.90;;;;;;;8.84;73.06;95897.17;104668;1257;99705;-82
2024/04/16 09:56:01;;;;;;;3.40;1.60;;;;;;;8.92;72.76;95886.59;104668;1261;99738;-82
2024/04/16 09:59:08;;;;;;;5.00;2.10;;;;;;;9.02;72.58;95872.46;104747;1261;104009;-80
2024/04/16 10:02:15;;;;;;;2.50;1.40;;;;;;;9.07;72.85;95877.81;104789;1275;100389;-82
2024/04/16 10:05:22;;;;;;;2.60;1.40;;;;;;;9.18;72.65;95888.75;104783;1259;99280;-83
2024/04/16 10:08:29;;;;;;;2.90;1.40;;;;;;;9.35;71.85;95902.09;104643;1258;99242;-83
2024/04/16 10:11:29;;;;;;;3.40;1.50;;;;;;;9.47;70.93;95910.66;104763;1258;99720;-83
2024/04/16 10:14:36;;;;;;;1.70;1.40;;;;;;;9.54;70.94;95910.95;104720;1263;104167;-83
2024/04/16 10:17:43;;;;;;;5.00;1.40;;;;;;;9.60;70.89;95907.52;104685;1261;101408;-82
2024/04/16 10:20:53;;;;;;;5.70;1.70;;;;;;;9.73;70.62;95906.23;104407;1273;100596;-81
2024/04/16 10:24:00;;;;;;;3.00;1.30;;;;;;;9.86;70.34;95905.81;104669;1279;99277;-81
2024/04/16 10:27:07;;;;;;;1.50;1.20;;;;;;;9.94;69.61;95927.03;104698;1271;99768;-83
2024/04/16 10:30:29;;;;;;;5.70;2.00;;;;;;;9.95;68.33;95940.58;104836;1257;104972;-81
2024/04/16 10:33:36;;;;;;;2.80;1.70;;;;;;;9.99;68.53;95952.48;104130;1270;100413;-82
2024/04/16 10:36:18;;;;;;;2.60;1.70;;;;;;;10.00;68.14;95938.69;104182;1270;99307;-82
2024/04/16 10:39:11;;;;;;;2.80;1.20;;;;;;;10.01;67.55;95932.27;104165;1271;99478;-81
2024/04/16 10:42:19;;;;;;;8.50;1.30;;;;;;;9.95;66.58;95929.85;104262;1279;99824;-81
2024/04/16 10:44:47;;;;;;;2.90;1.30;;;;;;;9.92;66.15;95922.19;104212;1269;104984;-81
2024/04/16 10:47:54;;;;;;;2.50;1.20;;;;;;;9.92;65.91;95917.92;104348;1270;99971;-85
2024/04/16 10:50:48;;;;;;;1.90;1.00;;;;;;;9.85;65.29;95901.54;104081;1270;99481;-85
2024/04/16 10:53:40;;;;;;;6.70;1.60;;;;;;;9.85;65.14;95896.85;104350;1269;99455;-82
2024/04/16 10:56:50;;;;;;;3.50;1.80;;;;;;;9.84;65.69;95909.05;104216;1269;99386;-82
2024/04/16 10:59:46;;;;;;;7.50;2.00;;;;;;;9.86;65.45;95927.11;104118;1270;103985;-85
2024/04/16 11:02:46;;;;;;;2.90;1.70;;;;;;;9.81;65.50;95921.58;104220;1270;101367;-84
2024/04/16 11:05:33;;;;;;;2.90;2.00;;;;;;;9.75;65.35;95934.69;104105;1269;99973;-82
2024/04/16 11:08:39;;;;;;;3.60;2.20;;;;;;;9.75;65.18;95934.79;104506;1272;99343;-82
2024/04/16 11:11:48;;;;;;;3.90;2.10;;;;;;;9.79;64.95;95922.21;104856;1259;100493;-83
2024/04/16 11:14:34;;;;;;;3.60;1.70;;;;;;;9.80;64.22;95914.52;104889;1257;104997;-82
2024/04/16 11:17:45;;;;;;;3.40;1.60;;;;;;;9.79;64.01;95911.38;104912;1260;101970;-82
2024/04/16 11:20:17;;;;;;;6.90;1.40;;;;;;;9.78;63.56;95909.77;104814;1257;100022;-82
2024/04/16 11:23:17;;;;;;;2.90;1.60;;;;;;;9.71;63.38;95904.27;104833;1263;99416;-82
2024/04/16 11:26:14;;;;;;;3.90;1.60;;;;;;;9.69;63.04;95913.64;104936;1267;99683;-82
2024/04/16 11:29:22;;;;;;;3.60;1.50;;;;;;;9.67;62.95;95923.95;104685;1261;103972;-82
2024/04/16 11:32:09;;;;;;;3.00;1.60;;;;;;;9.62;62.90;95933.89;104891;1261;101351;-81
2024/04/16 11:34:56;;;;;;;4.00;1.40;;;;;;;9.50;62.70;95943.20;104896;1264;99279;-84
2024/04/16 11:37:38;;;;;;;4.10;1.40;;;;;;;9.41;62.48;95943.72;104838;1258;99346;-84
2024/04/16 11:40:25;;;;;;;2.10;1.40;;;;;;;9.35;62.13;95943.22;105074;1260;99251;-82
2024/04/16 11:43:35;;;;;;;7.20;1.50;;;;;;;9.31;62.13;95947.33;104798;1257;103982;-81
2024/04/16 11:46:25;;;;;;;3.00;1.70;;;;;;;9.27;62.03;95941.58;104681;1258;101475;-82
2024/04/16 11:48:55;;;;;;;2.60;1.30;;;;;;;9.24;62.28;95947.48;104697;1256;99200;-82
2024/04/16 11:52:01;;;;;;;3.70;1.80;;;;;;;9.23;62.15;95960.80;104690;1263;99269;-81
2024/04/16 11:54:58;;;;;;;6.70;2.50;;;;;;;9.19;61.99;95948.22;104845;1261;100730;-86
2024/04/16 11:57:59;;;;;;;3.40;1.80;;;;;;;9.24;62.20;95939.65;105011;1257;104805;-83
2024/04/16 12:00:33;;;;;;;3.70;1.60;;;;;;;9.30;62.37;95943.33;104739;1257;100505;-82
2024/04/16 12:03:43;;;;;;;4.70;2.00;;;;;;;9.34;62.01;95934.84;104914;1261;99282;-84
2024/04/16 12:06:50;;;;;;;4.10;1.50;;;;;;;9.42;61.39;95929.24;105415;1262;99371;-83
2024/04/16 12:09:58;;;;;;;2.80;1.10;;;;;;;9.52;60.45;95923.20;104901;1259;99760;-83
2024/04/16 12:13:05;;;;;;;2.40;0.90;;;;;;;9.59;59.83;95926.50;104713;1257;104967;-83
2024/04/16 12:16:12;;;;;;;3.20;1.20;;;;;;;9.65;59.18;95919.88;104510;1265;100428;-84
2024/04/16 12:19:19;;;;;;;2.90;1.00;;;;;;;9.74;59.04;95916.82;104569;1272;100595;-82
2024/04/16 12:22:17;;;;;;;5.30;1.40;;;;;;;9.82;58.22;95916.79;104648;1267;100642;-82
2024/04/16 12:25:00;;;;;;;3.70;1.30;;;;;;;9.83;57.83;95907.65;104417;1267;99825;-84
2024/04/16 12:27:47;;;;;;;2.20;1.20;;;;;;;9.85;57.85;95892.10;104520;1266;104014;-83
2024/04/16 12:30:54;;;;;;;6.40;1.10;;;;;;;9.89;57.73;95881.45;104605;1261;99401;-81
2024/04/16 12:33:51;;;;;;;4.40;1.40;;;;;;;9.95;57.75;95875.98;104477;1267;100600;-83
2024/04/16 12:36:58;;;;;;;2.20;1.30;;;;;;;10.02;57.28;95876.91;104264;1266;100506;-82
2024/04/16 12:39:24;;;;;;;4.60;1.30;;;;;;;10.05;57.44;95872.44;104608;1267;99801;-73
2024/04/16 12:41:50;;;;;;;3.10;1.00;;;;;;;9.92;57.89;95876.31;104403;1267;99265;-73
2024/04/16 12:44:17;;;;;;;1.30;0.90;;;;;;;9.82;58.05;95873.34;104337;1267;100795;-73
2024/04/16 12:46:43;;;;;;;2.90;1.10;;;;;;;9.77;58.11;95874.13;104487;1265;99449;-76
2024/04/16 12:49:10;;;;;;;2.50;1.10;;;;;;;9.68;57.78;95884.64;104451;1261;99685;-76
2024/04/16 12:51:36;;;;;;;3.70;1.40;;;;;;;9.70;57.59;95891.36;104396;1263;99871;-76
2024/04/16 12:54:02;;;;;;;4.60;1.60;;;;;;;9.78;57.34;95890.41;104351;1267;100642;-75
2024/04/16 12:56:29;;;;;;;2.90;1.30;;;;;;;9.81;56.78;95901.30;104639;1257;100667;-76
2024/04/16 12:58:55;;;;;;;3.60;1.20;;;;;;;9.83;56.59;95913.45;104678;1262;99749;-76
2024/04/16 13:01:21;;;;;;;2.20;0.90;;;;;;;9.81;55.85;95914.98;106150;1256;99398;-76
2024/04/16 13:03:48;;;;;;;2.10;1.20;;;;;;;9.77;55.74;95919.71;104687;1263;99226;-76
2024/04/16 13:06:14;;;;;;;2.10;1.20;;;;;;;9.79;55.39;95917.27;104706;1260;99275;-75
2024/04/16 13:08:40;;;;;;;3.90;2.00;;;;;;;9.75;55.10;95907.78;104703;1259;99765;-76
2024/04/16 13:11:08;;;;;;;5.50;2.40;;;;;;;9.73;54.74;95909.95;104709;1272;99292;-76
2024/04/16 13:13:35;;;;;;;2.40;1.30;;;;;;;9.66;54.74;95899.96;104677;1273;99779;-76
2024/04/16 13:16:02;;;;;;;4.00;1.80;;;;;;;9.71;55.48;95894.56;104664;1256;99247;-76